<?xml version="1.0" encoding="UTF-8" standalone="no" ?>
<gpx xmlns="http://www.topografix.com/GPX/1/1" xmlns:xsi="http://www.w3.org/2001/XMLSchema-instance" xsi:schemaLocation="http://www.topografix.com/GPX/1/1 http://www.topografix.com/GPX/1/1/gpx.xsd" version="1.1" creator="VisuGPX - https://www.visugpx.com">
  <metadata>
    <name>Tour de France 2019</name>
    <desc><![CDATA[4272km en 2 mois en tandem avec notre petit chien dans le panier avant]]></desc>
  </metadata>
  <trk>
    <name><![CDATA[Tracé 20190926-103144]]></name>
    <trkseg>
      <trkpt lat="47.74957" lon="6.49643">
        <ele>335.374</ele>
        <time>2019-09-26T10:32:02Z</time>
      </trkpt>
      <trkpt lat="47.74929" lon="6.49612">
        <ele>316.4</ele>
        <time>2019-09-26T10:35:05Z</time>
      </trkpt>
      <trkpt lat="47.74876" lon="6.49495">
        <ele>316.972</ele>
        <time>2019-09-26T10:35:38Z</time>
      </trkpt>
      <trkpt lat="47.74757" lon="6.49483">
        <ele>319.226</ele>
        <time>2019-09-26T10:36:11Z</time>
      </trkpt>
      <trkpt lat="47.74696" lon="6.49608">
        <ele>321.617</ele>
        <time>2019-09-26T10:36:41Z</time>
      </trkpt>
      <trkpt lat="47.74623" lon="6.49691">
        <ele>325.86</ele>
        <time>2019-09-26T10:37:14Z</time>
      </trkpt>
      <trkpt lat="47.74541" lon="6.49779">
        <ele>327.871</ele>
        <time>2019-09-26T10:37:44Z</time>
      </trkpt>
      <trkpt lat="47.7444" lon="6.49902">
        <ele>327.453</ele>
        <time>2019-09-26T10:38:17Z</time>
      </trkpt>
      <trkpt lat="47.74367" lon="6.50026">
        <ele>328.276</ele>
        <time>2019-09-26T10:38:47Z</time>
      </trkpt>
      <trkpt lat="47.74297" lon="6.50134">
        <ele>330.67</ele>
        <time>2019-09-26T10:39:20Z</time>
      </trkpt>
      <trkpt lat="47.74225" lon="6.50221">
        <ele>331.428</ele>
        <time>2019-09-26T10:39:50Z</time>
      </trkpt>
      <trkpt lat="47.74132" lon="6.50331">
        <ele>331.59</ele>
        <time>2019-09-26T10:40:20Z</time>
      </trkpt>
      <trkpt lat="47.74038" lon="6.50444">
        <ele>332.983</ele>
        <time>2019-09-26T10:40:53Z</time>
      </trkpt>
      <trkpt lat="47.7398" lon="6.50536">
        <ele>337.15</ele>
        <time>2019-09-26T10:41:23Z</time>
      </trkpt>
      <trkpt lat="47.73913" lon="6.50665">
        <ele>339.548</ele>
        <time>2019-09-26T10:41:56Z</time>
      </trkpt>
      <trkpt lat="47.73834" lon="6.50813">
        <ele>344.066</ele>
        <time>2019-09-26T10:42:26Z</time>
      </trkpt>
      <trkpt lat="47.73744" lon="6.50975">
        <ele>342.497</ele>
        <time>2019-09-26T10:42:59Z</time>
      </trkpt>
      <trkpt lat="47.73663" lon="6.51145">
        <ele>340.146</ele>
        <time>2019-09-26T10:43:29Z</time>
      </trkpt>
      <trkpt lat="47.73557" lon="6.5132">
        <ele>346.912</ele>
        <time>2019-09-26T10:44:02Z</time>
      </trkpt>
      <trkpt lat="47.73435" lon="6.51592">
        <ele>343.02</ele>
        <time>2019-09-26T10:44:32Z</time>
      </trkpt>
      <trkpt lat="47.73284" lon="6.52016">
        <ele>313.987</ele>
        <time>2019-09-26T10:45:05Z</time>
      </trkpt>
      <trkpt lat="47.73208" lon="6.52228">
        <ele>313.77</ele>
        <time>2019-09-26T10:45:35Z</time>
      </trkpt>
      <trkpt lat="47.73135" lon="6.52441">
        <ele>317.806</ele>
        <time>2019-09-26T10:46:08Z</time>
      </trkpt>
      <trkpt lat="47.73066" lon="6.52637">
        <ele>319.864</ele>
        <time>2019-09-26T10:46:38Z</time>
      </trkpt>
      <trkpt lat="47.73006" lon="6.52815">
        <ele>319.937</ele>
        <time>2019-09-26T10:47:11Z</time>
      </trkpt>
      <trkpt lat="47.72959" lon="6.52951">
        <ele>324.293</ele>
        <time>2019-09-26T10:47:41Z</time>
      </trkpt>
      <trkpt lat="47.7285" lon="6.53023">
        <ele>328.608</ele>
        <time>2019-09-26T10:48:14Z</time>
      </trkpt>
      <trkpt lat="47.7271" lon="6.53059">
        <ele>328.642</ele>
        <time>2019-09-26T10:48:44Z</time>
      </trkpt>
      <trkpt lat="47.72538" lon="6.53157">
        <ele>321.315</ele>
        <time>2019-09-26T10:49:17Z</time>
      </trkpt>
      <trkpt lat="47.72388" lon="6.53189">
        <ele>319.872</ele>
        <time>2019-09-26T10:49:47Z</time>
      </trkpt>
      <trkpt lat="47.72247" lon="6.53194">
        <ele>318.729</ele>
        <time>2019-09-26T10:50:20Z</time>
      </trkpt>
      <trkpt lat="47.72107" lon="6.53224">
        <ele>324.605</ele>
        <time>2019-09-26T10:50:50Z</time>
      </trkpt>
      <trkpt lat="47.71861" lon="6.5325">
        <ele>310.202</ele>
        <time>2019-09-26T10:51:23Z</time>
      </trkpt>
      <trkpt lat="47.71734" lon="6.5313">
        <ele>300.772</ele>
        <time>2019-09-26T10:51:53Z</time>
      </trkpt>
      <trkpt lat="47.71595" lon="6.53088">
        <ele>305.493</ele>
        <time>2019-09-26T10:52:23Z</time>
      </trkpt>
      <trkpt lat="47.71439" lon="6.53087">
        <ele>311.501</ele>
        <time>2019-09-26T10:52:56Z</time>
      </trkpt>
      <trkpt lat="47.71291" lon="6.53076">
        <ele>307.941</ele>
        <time>2019-09-26T10:53:26Z</time>
      </trkpt>
      <trkpt lat="47.71136" lon="6.53008">
        <ele>304.284</ele>
        <time>2019-09-26T10:53:59Z</time>
      </trkpt>
      <trkpt lat="47.71001" lon="6.53038">
        <ele>307.981</ele>
        <time>2019-09-26T10:54:29Z</time>
      </trkpt>
      <trkpt lat="47.70838" lon="6.53021">
        <ele>307.02</ele>
        <time>2019-09-26T10:55:02Z</time>
      </trkpt>
      <trkpt lat="47.70706" lon="6.53133">
        <ele>307.456</ele>
        <time>2019-09-26T10:55:32Z</time>
      </trkpt>
      <trkpt lat="47.70553" lon="6.53065">
        <ele>300.955</ele>
        <time>2019-09-26T10:56:05Z</time>
      </trkpt>
      <trkpt lat="47.70399" lon="6.53028">
        <ele>304.304</ele>
        <time>2019-09-26T10:56:35Z</time>
      </trkpt>
      <trkpt lat="47.70232" lon="6.53018">
        <ele>306.991</ele>
        <time>2019-09-26T10:57:08Z</time>
      </trkpt>
      <trkpt lat="47.70091" lon="6.52972">
        <ele>300.656</ele>
        <time>2019-09-26T10:57:38Z</time>
      </trkpt>
      <trkpt lat="47.69932" lon="6.529">
        <ele>299.847</ele>
        <time>2019-09-26T10:58:11Z</time>
      </trkpt>
      <trkpt lat="47.69798" lon="6.52829">
        <ele>302.661</ele>
        <time>2019-09-26T10:58:41Z</time>
      </trkpt>
      <trkpt lat="47.69631" lon="6.5279">
        <ele>300.629</ele>
        <time>2019-09-26T10:59:14Z</time>
      </trkpt>
      <trkpt lat="47.69488" lon="6.52781">
        <ele>304.99</ele>
        <time>2019-09-26T10:59:44Z</time>
      </trkpt>
      <trkpt lat="47.69342" lon="6.52692">
        <ele>303.073</ele>
        <time>2019-09-26T11:00:17Z</time>
      </trkpt>
      <trkpt lat="47.69254" lon="6.52562">
        <ele>300.156</ele>
        <time>2019-09-26T11:00:47Z</time>
      </trkpt>
      <trkpt lat="47.69149" lon="6.52391">
        <ele>303.725</ele>
        <time>2019-09-26T11:01:20Z</time>
      </trkpt>
      <trkpt lat="47.68992" lon="6.52316">
        <ele>300.457</ele>
        <time>2019-09-26T11:01:50Z</time>
      </trkpt>
      <trkpt lat="47.68849" lon="6.52185">
        <ele>300.668</ele>
        <time>2019-09-26T11:02:23Z</time>
      </trkpt>
      <trkpt lat="47.6874" lon="6.52028">
        <ele>298.393</ele>
        <time>2019-09-26T09:02:53.001Z</time>
      </trkpt>
      <trkpt lat="47.68612" lon="6.51919">
        <ele>302.016</ele>
        <time>2019-09-26T09:03:26.001Z</time>
      </trkpt>
      <trkpt lat="47.68519" lon="6.51915">
        <ele>300.752</ele>
        <time>2019-09-26T09:03:59.001Z</time>
      </trkpt>
      <trkpt lat="47.68393" lon="6.51918">
        <ele>301.075</ele>
        <time>2019-09-26T09:04:29.001Z</time>
      </trkpt>
      <trkpt lat="47.6828" lon="6.51783">
        <ele>305.711</ele>
        <time>2019-09-26T11:05:02Z</time>
      </trkpt>
      <trkpt lat="47.68172" lon="6.51693">
        <ele>306.633</ele>
        <time>2019-09-26T09:05:32.001Z</time>
      </trkpt>
      <trkpt lat="47.68035" lon="6.51746">
        <ele>301.482</ele>
        <time>2019-09-26T09:06:05.001Z</time>
      </trkpt>
      <trkpt lat="47.67911" lon="6.51795">
        <ele>301.134</ele>
        <time>2019-09-26T09:06:35.001Z</time>
      </trkpt>
      <trkpt lat="47.6779" lon="6.51893">
        <ele>301.777</ele>
        <time>2019-09-26T09:07:08.001Z</time>
      </trkpt>
      <trkpt lat="47.67783" lon="6.52111">
        <ele>300.224</ele>
        <time>2019-09-26T09:07:38.001Z</time>
      </trkpt>
      <trkpt lat="47.67665" lon="6.52234">
        <ele>297.729</ele>
        <time>2019-09-26T09:08:11.001Z</time>
      </trkpt>
      <trkpt lat="47.67565" lon="6.52267">
        <ele>298.998</ele>
        <time>2019-09-26T09:08:41.001Z</time>
      </trkpt>
      <trkpt lat="47.67562" lon="6.52524">
        <ele>300.168</ele>
        <time>2019-09-26T09:09:14.001Z</time>
      </trkpt>
      <trkpt lat="47.67528" lon="6.52723">
        <ele>304.941</ele>
        <time>2019-09-26T09:09:44.001Z</time>
      </trkpt>
      <trkpt lat="47.67494" lon="6.52952">
        <ele>304.746</ele>
        <time>2019-09-26T09:10:17.001Z</time>
      </trkpt>
      <trkpt lat="47.67461" lon="6.53163">
        <ele>302.42</ele>
        <time>2019-09-26T09:10:47.001Z</time>
      </trkpt>
      <trkpt lat="47.67361" lon="6.53327">
        <ele>301.097</ele>
        <time>2019-09-26T09:11:20.001Z</time>
      </trkpt>
      <trkpt lat="47.67354" lon="6.53522">
        <ele>303.799</ele>
        <time>2019-09-26T09:11:50.001Z</time>
      </trkpt>
      <trkpt lat="47.67339" lon="6.53737">
        <ele>301.837</ele>
        <time>2019-09-26T09:12:23.001Z</time>
      </trkpt>
      <trkpt lat="47.67231" lon="6.53861">
        <ele>301.514</ele>
        <time>2019-09-26T09:12:53.001Z</time>
      </trkpt>
      <trkpt lat="47.6711" lon="6.54001">
        <ele>300.773</ele>
        <time>2019-09-26T09:13:26.001Z</time>
      </trkpt>
      <trkpt lat="47.6701" lon="6.54141">
        <ele>303.844</ele>
        <time>2019-09-26T09:13:56.001Z</time>
      </trkpt>
      <trkpt lat="47.66877" lon="6.54219">
        <ele>303.417</ele>
        <time>2019-09-26T09:14:29.001Z</time>
      </trkpt>
      <trkpt lat="47.66793" lon="6.54403">
        <ele>300.96</ele>
        <time>2019-09-26T09:14:59.001Z</time>
      </trkpt>
      <trkpt lat="47.66679" lon="6.5448">
        <ele>303.028</ele>
        <time>2019-09-26T09:15:32.001Z</time>
      </trkpt>
      <trkpt lat="47.6655" lon="6.54556">
        <ele>302.1</ele>
        <time>2019-09-26T11:16:02Z</time>
      </trkpt>
      <trkpt lat="47.66448" lon="6.54683">
        <ele>302.033</ele>
        <time>2019-09-26T09:16:32.001Z</time>
      </trkpt>
      <trkpt lat="47.66337" lon="6.54819">
        <ele>299.459</ele>
        <time>2019-09-26T09:17:05.001Z</time>
      </trkpt>
      <trkpt lat="47.66258" lon="6.54894">
        <ele>303.968</ele>
        <time>2019-09-26T09:17:35.001Z</time>
      </trkpt>
      <trkpt lat="47.66164" lon="6.54914">
        <ele>307.321</ele>
        <time>2019-09-26T09:18:08.001Z</time>
      </trkpt>
      <trkpt lat="47.66062" lon="6.55062">
        <ele>304.741</ele>
        <time>2019-09-26T09:18:38.001Z</time>
      </trkpt>
      <trkpt lat="47.65954" lon="6.55175">
        <ele>306.336</ele>
        <time>2019-09-26T09:19:11.001Z</time>
      </trkpt>
      <trkpt lat="47.65853" lon="6.55248">
        <ele>310.893</ele>
        <time>2019-09-26T09:19:41.001Z</time>
      </trkpt>
      <trkpt lat="47.65745" lon="6.55237">
        <ele>310.244</ele>
        <time>2019-09-26T09:20:14.001Z</time>
      </trkpt>
      <trkpt lat="47.65644" lon="6.55258">
        <ele>311.202</ele>
        <time>2019-09-26T09:20:44.001Z</time>
      </trkpt>
      <trkpt lat="47.65546" lon="6.55334">
        <ele>315.138</ele>
        <time>2019-09-26T09:21:17.001Z</time>
      </trkpt>
      <trkpt lat="47.65458" lon="6.55346">
        <ele>318.761</ele>
        <time>2019-09-26T09:21:47.001Z</time>
      </trkpt>
      <trkpt lat="47.65425" lon="6.55471">
        <ele>322.831</ele>
        <time>2019-09-26T09:22:20.001Z</time>
      </trkpt>
      <trkpt lat="47.6543" lon="6.55444">
        <ele>322.484</ele>
        <time>2019-09-26T09:22:50.001Z</time>
      </trkpt>
      <trkpt lat="47.65397" lon="6.55324">
        <ele>317.469</ele>
        <time>2019-09-26T09:23:23.001Z</time>
      </trkpt>
      <trkpt lat="47.65293" lon="6.55297">
        <ele>321.387</ele>
        <time>2019-09-26T09:23:53.001Z</time>
      </trkpt>
      <trkpt lat="47.65141" lon="6.55252">
        <ele>309.414</ele>
        <time>2019-09-26T09:24:26.001Z</time>
      </trkpt>
      <trkpt lat="47.65073" lon="6.55252">
        <ele>309.361</ele>
        <time>2019-09-26T09:25:59.001Z</time>
      </trkpt>
      <trkpt lat="47.64889" lon="6.55247">
        <ele>304.598</ele>
        <time>2019-09-26T09:26:32.001Z</time>
      </trkpt>
      <trkpt lat="47.64806" lon="6.55163">
        <ele>310.857</ele>
        <time>2019-09-26T11:27:02Z</time>
      </trkpt>
      <trkpt lat="47.6474" lon="6.55127">
        <ele>312.813</ele>
        <time>2019-09-26T09:27:35.001Z</time>
      </trkpt>
      <trkpt lat="47.64653" lon="6.55103">
        <ele>315.862</ele>
        <time>2019-09-26T09:28:05.001Z</time>
      </trkpt>
      <trkpt lat="47.64513" lon="6.5511">
        <ele>309.506</ele>
        <time>2019-09-26T09:28:35.001Z</time>
      </trkpt>
      <trkpt lat="47.6434" lon="6.55112">
        <ele>302.057</ele>
        <time>2019-09-26T09:29:08.001Z</time>
      </trkpt>
      <trkpt lat="47.64228" lon="6.55129">
        <ele>302.451</ele>
        <time>2019-09-26T09:29:38.001Z</time>
      </trkpt>
      <trkpt lat="47.64111" lon="6.55128">
        <ele>305.92</ele>
        <time>2019-09-26T09:30:11.001Z</time>
      </trkpt>
      <trkpt lat="47.63974" lon="6.55111">
        <ele>301.875</ele>
        <time>2019-09-26T09:30:41.001Z</time>
      </trkpt>
      <trkpt lat="47.63844" lon="6.55049">
        <ele>301.614</ele>
        <time>2019-09-26T09:31:14.001Z</time>
      </trkpt>
      <trkpt lat="47.63679" lon="6.55005">
        <ele>296.79</ele>
        <time>2019-09-26T09:31:44.001Z</time>
      </trkpt>
      <trkpt lat="47.63508" lon="6.55029">
        <ele>290.858</ele>
        <time>2019-09-26T09:32:17.001Z</time>
      </trkpt>
      <trkpt lat="47.63345" lon="6.55134">
        <ele>292.499</ele>
        <time>2019-09-26T09:32:47.001Z</time>
      </trkpt>
      <trkpt lat="47.63188" lon="6.55229">
        <ele>288.658</ele>
        <time>2019-09-26T09:33:20.001Z</time>
      </trkpt>
      <trkpt lat="47.63063" lon="6.55233">
        <ele>291.31</ele>
        <time>2019-09-26T09:33:50.001Z</time>
      </trkpt>
      <trkpt lat="47.62958" lon="6.55197">
        <ele>298.879</ele>
        <time>2019-09-26T09:34:23.001Z</time>
      </trkpt>
      <trkpt lat="47.62912" lon="6.55132">
        <ele>306.804</ele>
        <time>2019-09-26T09:34:53.001Z</time>
      </trkpt>
      <trkpt lat="47.62881" lon="6.55059">
        <ele>310.994</ele>
        <time>2019-09-26T09:35:26.001Z</time>
      </trkpt>
      <trkpt lat="47.62822" lon="6.55055">
        <ele>313.774</ele>
        <time>2019-09-26T09:35:56.001Z</time>
      </trkpt>
      <trkpt lat="47.62738" lon="6.55016">
        <ele>318.781</ele>
        <time>2019-09-26T09:36:29.001Z</time>
      </trkpt>
      <trkpt lat="47.62674" lon="6.54962">
        <ele>315.749</ele>
        <time>2019-09-26T09:36:59.001Z</time>
      </trkpt>
      <trkpt lat="47.62609" lon="6.54901">
        <ele>316.652</ele>
        <time>2019-09-26T09:37:32.001Z</time>
      </trkpt>
      <trkpt lat="47.62548" lon="6.54846">
        <ele>322.643</ele>
        <time>2019-09-26T11:38:02Z</time>
      </trkpt>
      <trkpt lat="47.62492" lon="6.54759">
        <ele>327.249</ele>
        <time>2019-09-26T09:38:35.001Z</time>
      </trkpt>
      <trkpt lat="47.62421" lon="6.54636">
        <ele>325.433</ele>
        <time>2019-09-26T09:39:05.001Z</time>
      </trkpt>
      <trkpt lat="47.62313" lon="6.54448">
        <ele>315.846</ele>
        <time>2019-09-26T09:39:38.001Z</time>
      </trkpt>
      <trkpt lat="47.62188" lon="6.54239">
        <ele>313.111</ele>
        <time>2019-09-26T09:40:08.001Z</time>
      </trkpt>
      <trkpt lat="47.62037" lon="6.53993">
        <ele>306.779</ele>
        <time>2019-09-26T09:40:38.001Z</time>
      </trkpt>
      <trkpt lat="47.6186" lon="6.53734">
        <ele>300.153</ele>
        <time>2019-09-26T09:41:11.001Z</time>
      </trkpt>
      <trkpt lat="47.61729" lon="6.53539">
        <ele>297.656</ele>
        <time>2019-09-26T09:41:41.001Z</time>
      </trkpt>
      <trkpt lat="47.61553" lon="6.53324">
        <ele>292.236</ele>
        <time>2019-09-26T09:42:14.001Z</time>
      </trkpt>
      <trkpt lat="47.61372" lon="6.53141">
        <ele>287.716</ele>
        <time>2019-09-26T09:42:44.001Z</time>
      </trkpt>
      <trkpt lat="47.61343" lon="6.52922">
        <ele>280.6</ele>
        <time>2019-09-26T09:43:17.001Z</time>
      </trkpt>
      <trkpt lat="47.61343" lon="6.52729">
        <ele>281.77</ele>
        <time>2019-09-26T09:43:47.001Z</time>
      </trkpt>
      <trkpt lat="47.61261" lon="6.52506">
        <ele>280.849</ele>
        <time>2019-09-26T09:44:20.001Z</time>
      </trkpt>
      <trkpt lat="47.61147" lon="6.52408">
        <ele>282.36</ele>
        <time>2019-09-26T09:44:50.001Z</time>
      </trkpt>
      <trkpt lat="47.6103" lon="6.5234">
        <ele>288.094</ele>
        <time>2019-09-26T09:45:23.001Z</time>
      </trkpt>
      <trkpt lat="47.6096" lon="6.52305">
        <ele>294.092</ele>
        <time>2019-09-26T09:45:53.001Z</time>
      </trkpt>
      <trkpt lat="47.609" lon="6.52265">
        <ele>298.504</ele>
        <time>2019-09-26T09:46:26.001Z</time>
      </trkpt>
      <trkpt lat="47.60849" lon="6.52244">
        <ele>300.848</ele>
        <time>2019-09-26T09:46:56.001Z</time>
      </trkpt>
      <trkpt lat="47.60771" lon="6.52218">
        <ele>305.462</ele>
        <time>2019-09-26T09:47:29.001Z</time>
      </trkpt>
      <trkpt lat="47.60564" lon="6.52177">
        <ele>295.251</ele>
        <time>2019-09-26T09:47:59.001Z</time>
      </trkpt>
      <trkpt lat="47.60461" lon="6.5201">
        <ele>287.399</ele>
        <time>2019-09-26T09:48:32.001Z</time>
      </trkpt>
      <trkpt lat="47.60409" lon="6.5189">
        <ele>288.499</ele>
        <time>2019-09-26T11:49:02Z</time>
      </trkpt>
      <trkpt lat="47.60346" lon="6.51766">
        <ele>288.763</ele>
        <time>2019-09-26T09:49:35.001Z</time>
      </trkpt>
      <trkpt lat="47.60266" lon="6.51688">
        <ele>291.204</ele>
        <time>2019-09-26T09:50:05.001Z</time>
      </trkpt>
      <trkpt lat="47.60184" lon="6.51607">
        <ele>294.513</ele>
        <time>2019-09-26T09:50:38.001Z</time>
      </trkpt>
      <trkpt lat="47.60109" lon="6.51529">
        <ele>303.158</ele>
        <time>2019-09-26T09:51:08.001Z</time>
      </trkpt>
      <trkpt lat="47.60027" lon="6.51444">
        <ele>304.675</ele>
        <time>2019-09-26T09:51:41.001Z</time>
      </trkpt>
      <trkpt lat="47.59948" lon="6.5136">
        <ele>304.311</ele>
        <time>2019-09-26T09:52:11.001Z</time>
      </trkpt>
      <trkpt lat="47.59876" lon="6.51282">
        <ele>309.431</ele>
        <time>2019-09-26T09:52:41.001Z</time>
      </trkpt>
      <trkpt lat="47.59796" lon="6.51197">
        <ele>311.209</ele>
        <time>2019-09-26T09:53:14.001Z</time>
      </trkpt>
      <trkpt lat="47.59751" lon="6.5106">
        <ele>310.089</ele>
        <time>2019-09-26T09:53:44.001Z</time>
      </trkpt>
      <trkpt lat="47.59659" lon="6.50928">
        <ele>304.241</ele>
        <time>2019-09-26T09:54:17.001Z</time>
      </trkpt>
      <trkpt lat="47.59563" lon="6.50835">
        <ele>305.034</ele>
        <time>2019-09-26T09:54:47.001Z</time>
      </trkpt>
      <trkpt lat="47.59472" lon="6.50805">
        <ele>300.949</ele>
        <time>2019-09-26T09:55:20.001Z</time>
      </trkpt>
      <trkpt lat="47.59334" lon="6.50947">
        <ele>293.485</ele>
        <time>2019-09-26T09:55:50.001Z</time>
      </trkpt>
      <trkpt lat="47.59268" lon="6.51098">
        <ele>302.926</ele>
        <time>2019-09-26T09:56:23.001Z</time>
      </trkpt>
      <trkpt lat="47.59172" lon="6.51292">
        <ele>305.522</ele>
        <time>2019-09-26T09:56:53.001Z</time>
      </trkpt>
      <trkpt lat="47.59052" lon="6.5156">
        <ele>300.296</ele>
        <time>2019-09-26T09:57:26.001Z</time>
      </trkpt>
      <trkpt lat="47.58861" lon="6.51817">
        <ele>288.948</ele>
        <time>2019-09-26T09:57:56.001Z</time>
      </trkpt>
      <trkpt lat="47.58723" lon="6.52167">
        <ele>274.482</ele>
        <time>2019-09-26T09:58:29.001Z</time>
      </trkpt>
      <trkpt lat="47.58759" lon="6.52342">
        <ele>279.66</ele>
        <time>2019-09-26T09:58:59.001Z</time>
      </trkpt>
      <trkpt lat="47.58766" lon="6.52467">
        <ele>292.614</ele>
        <time>2019-09-26T09:59:32.001Z</time>
      </trkpt>
      <trkpt lat="47.58775" lon="6.52597">
        <ele>295.035</ele>
        <time>2019-09-26T12:00:02Z</time>
      </trkpt>
      <trkpt lat="47.58764" lon="6.52734">
        <ele>298.246</ele>
        <time>2019-09-26T10:00:35.001Z</time>
      </trkpt>
      <trkpt lat="47.58739" lon="6.52817">
        <ele>300.198</ele>
        <time>2019-09-26T10:01:05.001Z</time>
      </trkpt>
      <trkpt lat="47.58717" lon="6.52898">
        <ele>303.166</ele>
        <time>2019-09-26T10:01:38.001Z</time>
      </trkpt>
      <trkpt lat="47.58714" lon="6.52979">
        <ele>305.652</ele>
        <time>2019-09-26T10:02:08.001Z</time>
      </trkpt>
      <trkpt lat="47.58687" lon="6.53073">
        <ele>308.032</ele>
        <time>2019-09-26T10:02:41.001Z</time>
      </trkpt>
      <trkpt lat="47.58645" lon="6.5314">
        <ele>310.581</ele>
        <time>2019-09-26T10:03:11.001Z</time>
      </trkpt>
      <trkpt lat="47.58596" lon="6.53222">
        <ele>315.218</ele>
        <time>2019-09-26T10:03:44.001Z</time>
      </trkpt>
      <trkpt lat="47.58508" lon="6.53342">
        <ele>313.89</ele>
        <time>2019-09-26T10:04:14.001Z</time>
      </trkpt>
      <trkpt lat="47.58256" lon="6.53646">
        <ele>293.123</ele>
        <time>2019-09-26T10:04:44.001Z</time>
      </trkpt>
      <trkpt lat="47.58192" lon="6.53824">
        <ele>284.863</ele>
        <time>2019-09-26T10:05:17.001Z</time>
      </trkpt>
      <trkpt lat="47.58142" lon="6.53897">
        <ele>295.562</ele>
        <time>2019-09-26T10:05:47.001Z</time>
      </trkpt>
      <trkpt lat="47.58093" lon="6.53971">
        <ele>307.288</ele>
        <time>2019-09-26T10:06:20.001Z</time>
      </trkpt>
      <trkpt lat="47.58061" lon="6.54127">
        <ele>307.203</ele>
        <time>2019-09-26T10:06:50.001Z</time>
      </trkpt>
      <trkpt lat="47.57898" lon="6.54449">
        <ele>298.025</ele>
        <time>2019-09-26T10:07:23.001Z</time>
      </trkpt>
      <trkpt lat="47.57832" lon="6.54843">
        <ele>293.411</ele>
        <time>2019-09-26T10:07:53.001Z</time>
      </trkpt>
      <trkpt lat="47.57943" lon="6.55096">
        <ele>287.638</ele>
        <time>2019-09-26T10:08:26.001Z</time>
      </trkpt>
      <trkpt lat="47.58068" lon="6.55161">
        <ele>292.99</ele>
        <time>2019-09-26T10:08:56.001Z</time>
      </trkpt>
      <trkpt lat="47.58175" lon="6.55333">
        <ele>290.727</ele>
        <time>2019-09-26T10:09:29.001Z</time>
      </trkpt>
    </trkseg>
  </trk>
</gpx>